sensor_id;sensor_type;location;lat;lon;timestamp;pressure;altitude;pressure_sealevel;temperature;humidity
20115;BME280;10218;42.874;25.320;2022-10-16T00:01:27;97956.44;;;7.34;100.00
20115;BME280;10218;42.874;25.320;2022-10-16T00:03:56;97959.94;;;7.35;100.00
20115;BME280;10218;42.874;25.320;2022-10-16T00:06:24;97961.69;;;7.24;100.00
20115;BME280;10218;42.874;25.320;2022-10-16T00:08:52;97959.13;;;7.13;100.00
20115;BME280;10218;42.874;25.320;2022-10-16T00:11:26;97961.03;;;7.11;100.00
20115;BME280;10218;42.874;25.320;2022-10-16T00:13:59;97958.37;;;7.11;100.00
20115;BME280;10218;42.874;25.320;2022-10-16T00:16:28;97967.34;;;7.10;100.00
20115;BME280;10218;42.874;25.320;2022-10-16T00:18:56;97965.59;;;7.20;100.00
20115;BME280;10218;42.874;25.320;2022-10-16T00:21:26;97964.75;;;7.20;100.00
20115;BME280;10218;42.874;25.320;2022-10-16T00:23:56;97968.59;;;7.37;100.00
20115;BME280;10218;42.874;25.320;2022-10-16T00:26:27;97960.91;;;7.34;100.00
20115;BME280;10218;42.874;25.320;2022-10-16T00:28:55;97966.94;;;7.36;100.00
20115;BME280;10218;42.874;25.320;2022-10-16T00:31:23;97969.22;;;7.19;100.00
20115;BME280;10218;42.874;25.320;2022-10-16T00:33:51;97978.00;;;7.10;100.00
20115;BME280;10218;42.874;25.320;2022-10-16T00:36:20;97975.72;;;7.06;100.00
20115;BME280;10218;42.874;25.320;2022-10-16T00:38:50;97985.06;;;7.00;100.00
20115;BME280;10218;42.874;25.320;2022-10-16T00:41:22;97990.16;;;6.92;100.00
20115;BME280;10218;42.874;25.320;2022-10-16T00:43:50;97990.66;;;6.86;100.00
20115;BME280;10218;42.874;25.320;2022-10-16T00:46:22;98003.03;;;6.76;100.00
20115;BME280;10218;42.874;25.320;2022-10-16T00:49:05;98003.31;;;7.14;100.00
20115;BME280;10218;42.874;25.320;2022-10-16T00:51:39;98001.00;;;7.00;100.00
20115;BME280;10218;42.874;25.320;2022-10-16T01:05:51;98008.34;;;6.76;100.00
20115;BME280;10218;42.874;25.320;2022-10-16T01:08:30;98008.66;;;6.62;100.00
20115;BME280;10218;42.874;25.320;2022-10-16T01:11:17;98003.28;;;6.73;100.00
20115;BME280;10218;42.874;25.320;2022-10-16T01:13:53;98006.03;;;6.82;100.00
20115;BME280;10218;42.874;25.320;2022-10-16T01:16:34;98013.28;;;6.80;100.00
20115;BME280;10218;42.874;25.320;2022-10-16T01:19:23;98013.53;;;6.77;100.00
20115;BME280;10218;42.874;25.320;2022-10-16T01:21:55;98010.75;;;6.79;100.00
20115;BME280;10218;42.874;25.320;2022-10-16T01:24:39;98015.81;;;6.82;100.00
20115;BME280;10218;42.874;25.320;2022-10-16T01:30:10;98012.09;;;6.73;100.00
20115;BME280;10218;42.874;25.320;2022-10-16T01:32:44;98024.41;;;6.74;100.00
20115;BME280;10218;42.874;25.320;2022-10-16T01:35:21;98017.47;;;6.62;100.00
20115;BME280;10218;42.874;25.320;2022-10-16T01:40:27;98010.84;;;6.57;100.00
20115;BME280;10218;42.874;25.320;2022-10-16T01:43:01;98019.06;;;6.54;100.00
20115;BME280;10218;42.874;25.320;2022-10-16T01:45:31;98018.22;;;6.53;100.00
20115;BME280;10218;42.874;25.320;2022-10-16T01:48:02;98021.69;;;6.65;100.00
20115;BME280;10218;42.874;25.320;2022-10-16T01:50:34;98024.00;;;6.58;100.00
20115;BME280;10218;42.874;25.320;2022-10-16T01:53:04;98030.38;;;6.56;100.00
20115;BME280;10218;42.874;25.320;2022-10-16T01:55:36;98027.72;;;6.56;100.00
20115;BME280;10218;42.874;25.320;2022-10-16T01:58:07;98026.78;;;6.57;100.00
20115;BME280;10218;42.874;25.320;2022-10-16T02:00:38;98033.19;;;6.54;100.00
20115;BME280;10218;42.874;25.320;2022-10-16T02:03:07;98026.69;;;6.47;100.00
20115;BME280;10218;42.874;25.320;2022-10-16T02:05:46;98024.16;;;6.45;100.00
20115;BME280;10218;42.874;25.320;2022-10-16T02:08:13;98028.50;;;6.47;100.00
20115;BME280;10218;42.874;25.320;2022-10-16T02:10:41;98026.59;;;6.37;100.00
20115;BME280;10218;42.874;25.320;2022-10-16T02:13:31;98023.72;;;6.29;100.00
20115;BME280;10218;42.874;25.320;2022-10-16T02:16:00;98028.31;;;6.27;100.00
20115;BME280;10218;42.874;25.320;2022-10-16T02:18:28;98019.84;;;6.33;100.00
20115;BME280;10218;42.874;25.320;2022-10-16T02:26:04;98033.81;;;6.47;100.00
20115;BME280;10218;42.874;25.320;2022-10-16T02:28:41;98042.41;;;6.28;100.00
20115;BME280;10218;42.874;25.320;2022-10-16T02:31:11;98034.22;;;6.20;100.00
20115;BME280;10218;42.874;25.320;2022-10-16T02:33:41;98025.91;;;6.24;100.00
20115;BME280;10218;42.874;25.320;2022-10-16T02:36:11;98030.88;;;6.18;100.00
20115;BME280;10218;42.874;25.320;2022-10-16T02:38:39;98029.06;;;6.18;100.00
20115;BME280;10218;42.874;25.320;2022-10-16T02:41:08;98038.00;;;6.06;100.00
20115;BME280;10218;42.874;25.320;2022-10-16T02:43:35;98032.69;;;6.17;100.00
20115;BME280;10218;42.874;25.320;2022-10-16T02:46:02;98034.37;;;6.18;100.00
20115;BME280;10218;42.874;25.320;2022-10-16T02:48:30;98040.38;;;6.20;100.00
20115;BME280;10218;42.874;25.320;2022-10-16T02:50:57;98041.84;;;6.24;100.00
20115;BME280;10218;42.874;25.320;2022-10-16T02:53:26;98050.13;;;6.20;100.00
20115;BME280;10218;42.874;25.320;2022-10-16T02:55:53;98042.78;;;6.34;100.00
20115;BME280;10218;42.874;25.320;2022-10-16T02:58:21;98049.75;;;6.35;100.00
20115;BME280;10218;42.874;25.320;2022-10-16T03:00:49;98047.50;;;6.20;100.00
20115;BME280;10218;42.874;25.320;2022-10-16T03:03:16;98041.31;;;6.30;100.00
20115;BME280;10218;42.874;25.320;2022-10-16T03:05:43;98054.97;;;6.26;100.00
20115;BME280;10218;42.874;25.320;2022-10-16T03:08:13;98050.75;;;6.23;100.00
20115;BME280;10218;42.874;25.320;2022-10-16T03:10:40;98054.25;;;6.24;100.00
20115;BME280;10218;42.874;25.320;2022-10-16T03:13:08;98059.41;;;6.25;100.00
20115;BME280;10218;42.874;25.320;2022-10-16T03:15:35;98061.12;;;6.15;100.00
20115;BME280;10218;42.874;25.320;2022-10-16T03:18:02;98062.81;;;6.05;100.00
20115;BME280;10218;42.874;25.320;2022-10-16T03:20:29;98054.50;;;6.10;100.00
20115;BME280;10218;42.874;25.320;2022-10-16T03:22:56;98065.25;;;5.97;100.00
20115;BME280;10218;42.874;25.320;2022-10-16T03:25:23;98065.00;;;6.00;100.00
20115;BME280;10218;42.874;25.320;2022-10-16T03:27:50;98071.03;;;5.91;100.00
20115;BME280;10218;42.874;25.320;2022-10-16T03:30:17;98063.56;;;5.96;100.00
20115;BME280;10218;42.874;25.320;2022-10-16T03:32:44;98065.16;;;5.87;100.00
20115;BME280;10218;42.874;25.320;2022-10-16T03:35:12;98068.13;;;6.05;100.00
20115;BME280;10218;42.874;25.320;2022-10-16T03:37:40;98064.53;;;6.06;100.00
20115;BME280;10218;42.874;25.320;2022-10-16T03:40:08;98064.87;;;5.90;100.00
20115;BME280;10218;42.874;25.320;2022-10-16T03:42:36;98063.81;;;5.93;100.00
20115;BME280;10218;42.874;25.320;2022-10-16T03:45:03;98066.00;;;5.88;100.00
20115;BME280;10218;42.874;25.320;2022-10-16T03:47:31;98074.78;;;5.88;100.00
20115;BME280;10218;42.874;25.320;2022-10-16T03:49:59;98077.31;;;5.90;100.00
20115;BME280;10218;42.874;25.320;2022-10-16T03:52:27;98092.72;;;5.74;100.00
20115;BME280;10218;42.874;25.320;2022-10-16T03:54:54;98084.16;;;5.81;100.00
20115;BME280;10218;42.874;25.320;2022-10-16T03:57:21;98074.16;;;5.74;100.00
20115;BME280;10218;42.874;25.320;2022-10-16T03:59:48;98080.78;;;5.68;100.00
20115;BME280;10218;42.874;25.320;2022-10-16T04:02:15;98091.72;;;5.75;100.00
20115;BME280;10218;42.874;25.320;2022-10-16T04:04:42;98078.00;;;5.81;100.00
20115;BME280;10218;42.874;25.320;2022-10-16T04:07:09;98087.06;;;5.78;100.00
20115;BME280;10218;42.874;25.320;2022-10-16T04:09:36;98082.59;;;5.79;100.00
20115;BME280;10218;42.874;25.320;2022-10-16T04:12:04;98086.34;;;5.87;100.00
20115;BME280;10218;42.874;25.320;2022-10-16T04:14:32;98080.44;;;5.95;100.00
20115;BME280;10218;42.874;25.320;2022-10-16T04:16:59;98080.22;;;5.87;100.00
20115;BME280;10218;42.874;25.320;2022-10-16T04:19:27;98086.25;;;5.89;100.00
20115;BME280;10218;42.874;25.320;2022-10-16T04:21:54;98082.09;;;5.85;100.00
20115;BME280;10218;42.874;25.320;2022-10-16T04:24:21;98076.31;;;5.80;100.00
20115;BME280;10218;42.874;25.320;2022-10-16T04:26:49;98083.41;;;5.79;100.00
20115;BME280;10218;42.874;25.320;2022-10-16T04:29:16;98084.25;;;5.80;100.00
20115;BME280;10218;42.874;25.320;2022-10-16T04:31:43;98090.88;;;5.74;100.00
20115;BME280;10218;42.874;25.320;2022-10-16T04:34:10;98095.13;;;5.77;100.00
20115;BME280;10218;42.874;25.320;2022-10-16T04:36:37;98092.69;;;5.85;100.00
20115;BME280;10218;42.874;25.320;2022-10-16T04:39:04;98088.13;;;5.76;100.00
20115;BME280;10218;42.874;25.320;2022-10-16T04:41:31;98094.16;;;5.78;100.00
20115;BME280;10218;42.874;25.320;2022-10-16T04:43:58;98091.97;;;5.72;100.00
20115;BME280;10218;42.874;25.320;2022-10-16T04:46:25;98110.91;;;5.78;100.00
20115;BME280;10218;42.874;25.320;2022-10-16T04:48:53;98109.13;;;5.79;100.00
20115;BME280;10218;42.874;25.320;2022-10-16T04:51:20;98112.25;;;5.84;100.00
20115;BME280;10218;42.874;25.320;2022-10-16T04:53:48;98112.47;;;5.81;100.00
20115;BME280;10218;42.874;25.320;2022-10-16T04:56:16;98118.97;;;5.77;100.00
20115;BME280;10218;42.874;25.320;2022-10-16T04:58:43;98119.56;;;5.80;100.00
20115;BME280;10218;42.874;25.320;2022-10-16T05:01:10;98119.72;;;5.90;100.00
20115;BME280;10218;42.874;25.320;2022-10-16T05:03:37;98115.38;;;5.78;100.00
20115;BME280;10218;42.874;25.320;2022-10-16T05:06:07;98121.28;;;5.81;100.00
20115;BME280;10218;42.874;25.320;2022-10-16T05:08:34;98116.81;;;5.82;100.00
20115;BME280;10218;42.874;25.320;2022-10-16T05:11:01;98111.31;;;5.96;100.00
20115;BME280;10218;42.874;25.320;2022-10-16T05:13:28;98112.47;;;5.81;100.00
20115;BME280;10218;42.874;25.320;2022-10-16T05:15:55;98106.75;;;5.98;100.00
20115;BME280;10218;42.874;25.320;2022-10-16T05:18:23;98107.81;;;5.95;100.00
20115;BME280;10218;42.874;25.320;2022-10-16T05:20:50;98122.50;;;5.99;100.00
20115;BME280;10218;42.874;25.320;2022-10-16T05:23:17;98121.56;;;6.12;100.00
20115;BME280;10218;42.874;25.320;2022-10-16T05:25:52;98126.97;;;6.10;100.00
20115;BME280;10218;42.874;25.320;2022-10-16T05:28:20;98124.69;;;6.17;100.00
20115;BME280;10218;42.874;25.320;2022-10-16T05:30:48;98128.66;;;6.00;100.00
20115;BME280;10218;42.874;25.320;2022-10-16T05:33:15;98127.22;;;5.96;100.00
20115;BME280;10218;42.874;25.320;2022-10-16T05:35:43;98134.22;;;6.19;100.00
20115;BME280;10218;42.874;25.320;2022-10-16T05:38:11;98149.78;;;6.24;100.00
20115;BME280;10218;42.874;25.320;2022-10-16T05:40:38;98144.59;;;6.22;100.00
20115;BME280;10218;42.874;25.320;2022-10-16T05:43:06;98142.78;;;6.34;100.00
20115;BME280;10218;42.874;25.320;2022-10-16T05:45:34;98141.06;;;6.55;100.00
20115;BME280;10218;42.874;25.320;2022-10-16T05:48:01;98132.75;;;6.49;100.00
20115;BME280;10218;42.874;25.320;2022-10-16T05:50:28;98137.78;;;6.63;100.00
20115;BME280;10218;42.874;25.320;2022-10-16T05:52:56;98138.69;;;6.95;100.00
20115;BME280;10218;42.874;25.320;2022-10-16T05:55:23;98142.44;;;7.24;100.00
20115;BME280;10218;42.874;25.320;2022-10-16T05:57:50;98139.31;;;7.19;100.00
20115;BME280;10218;42.874;25.320;2022-10-16T06:00:18;98140.91;;;7.31;100.00
20115;BME280;10218;42.874;25.320;2022-10-16T06:02:45;98145.81;;;7.68;100.00
20115;BME280;10218;42.874;25.320;2022-10-16T06:05:13;98146.47;;;7.81;100.00
20115;BME280;10218;42.874;25.320;2022-10-16T06:07:40;98149.97;;;7.82;100.00
20115;BME280;10218;42.874;25.320;2022-10-16T06:10:07;98155.38;;;8.22;100.00
20115;BME280;10218;42.874;25.320;2022-10-16T06:12:35;98142.31;;;8.18;100.00
20115;BME280;10218;42.874;25.320;2022-10-16T06:15:02;98157.59;;;8.47;100.00
20115;BME280;10218;42.874;25.320;2022-10-16T06:17:30;98153.00;;;8.28;100.00
20115;BME280;10218;42.874;25.320;2022-10-16T06:19:57;98152.66;;;8.33;100.00
20115;BME280;10218;42.874;25.320;2022-10-16T06:22:25;98159.09;;;8.40;100.00
20115;BME280;10218;42.874;25.320;2022-10-16T06:24:52;98162.06;;;8.37;100.00
20115;BME280;10218;42.874;25.320;2022-10-16T06:27:19;98154.91;;;8.77;100.00
20115;BME280;10218;42.874;25.320;2022-10-16T06:29:46;98163.28;;;8.63;100.00
20115;BME280;10218;42.874;25.320;2022-10-16T06:32:14;98166.41;;;8.78;100.00
20115;BME280;10218;42.874;25.320;2022-10-16T06:34:41;98167.84;;;9.11;100.00
20115;BME280;10218;42.874;25.320;2022-10-16T06:37:08;98176.56;;;9.41;100.00
20115;BME280;10218;42.874;25.320;2022-10-16T06:39:36;98166.72;;;9.71;100.00
20115;BME280;10218;42.874;25.320;2022-10-16T06:42:03;98182.38;;;10.12;100.00
20115;BME280;10218;42.874;25.320;2022-10-16T06:44:32;98183.44;;;10.48;100.00
20115;BME280;10218;42.874;25.320;2022-10-16T06:46:59;98175.31;;;10.67;100.00
20115;BME280;10218;42.874;25.320;2022-10-16T06:49:26;98180.56;;;11.14;100.00
20115;BME280;10218;42.874;25.320;2022-10-16T06:51:56;98191.16;;;11.06;100.00
20115;BME280;10218;42.874;25.320;2022-10-16T06:54:23;98189.81;;;10.92;100.00
20115;BME280;10218;42.874;25.320;2022-10-16T06:56:51;98190.41;;;11.13;100.00
20115;BME280;10218;42.874;25.320;2022-10-16T06:59:18;98183.53;;;11.29;100.00
20115;BME280;10218;42.874;25.320;2022-10-16T07:01:45;98187.09;;;11.47;100.00
20115;BME280;10218;42.874;25.320;2022-10-16T07:04:12;98191.75;;;12.24;100.00
20115;BME280;10218;42.874;25.320;2022-10-16T07:06:39;98187.31;;;12.40;100.00
20115;BME280;10218;42.874;25.320;2022-10-16T07:09:09;98197.50;;;12.29;100.00
20115;BME280;10218;42.874;25.320;2022-10-16T07:11:38;98188.84;;;12.77;100.00
20115;BME280;10218;42.874;25.320;2022-10-16T07:14:17;98183.44;;;13.85;100.00
20115;BME280;10218;42.874;25.320;2022-10-16T07:16:46;98186.47;;;13.66;100.00
20115;BME280;10218;42.874;25.320;2022-10-16T07:19:14;98188.47;;;13.80;100.00
20115;BME280;10218;42.874;25.320;2022-10-16T07:21:42;98193.84;;;13.56;100.00
20115;BME280;10218;42.874;25.320;2022-10-16T07:24:14;98198.22;;;14.05;100.00
20115;BME280;10218;42.874;25.320;2022-10-16T07:26:44;98194.69;;;13.73;100.00
20115;BME280;10218;42.874;25.320;2022-10-16T07:29:19;98193.97;;;15.07;100.00
20115;BME280;10218;42.874;25.320;2022-10-16T07:31:48;98190.06;;;15.40;100.00
20115;BME280;10218;42.874;25.320;2022-10-16T07:34:17;98188.81;;;15.81;100.00
20115;BME280;10218;42.874;25.320;2022-10-16T07:36:48;98191.91;;;15.09;100.00
20115;BME280;10218;42.874;25.320;2022-10-16T07:39:16;98190.31;;;16.21;100.00
20115;BME280;10218;42.874;25.320;2022-10-16T07:41:43;98193.25;;;16.49;98.99
20115;BME280;10218;42.874;25.320;2022-10-16T07:44:10;98193.34;;;15.81;100.00
20115;BME280;10218;42.874;25.320;2022-10-16T07:46:38;98197.38;;;16.08;100.00
20115;BME280;10218;42.874;25.320;2022-10-16T07:49:05;98195.69;;;15.61;100.00
20115;BME280;10218;42.874;25.320;2022-10-16T07:51:33;98198.56;;;16.57;98.32
20115;BME280;10218;42.874;25.320;2022-10-16T07:54:00;98205.28;;;16.76;91.97
20115;BME280;10218;42.874;25.320;2022-10-16T07:56:30;98198.97;;;17.13;86.48
20115;BME280;10218;42.874;25.320;2022-10-16T07:58:57;98200.16;;;17.25;74.72
20115;BME280;10218;42.874;25.320;2022-10-16T08:01:24;98189.66;;;18.58;67.16
20115;BME280;10218;42.874;25.320;2022-10-16T08:03:51;98188.28;;;17.05;76.46
20115;BME280;10218;42.874;25.320;2022-10-16T08:06:20;98187.72;;;16.95;82.13
20115;BME280;10218;42.874;25.320;2022-10-16T08:08:49;98184.56;;;17.78;75.83
20115;BME280;10218;42.874;25.320;2022-10-16T08:11:17;98195.16;;;18.50;68.29
20115;BME280;10218;42.874;25.320;2022-10-16T08:13:44;98194.13;;;18.51;65.59
20115;BME280;10218;42.874;25.320;2022-10-16T08:16:11;98183.81;;;16.83;70.81
20115;BME280;10218;42.874;25.320;2022-10-16T08:18:40;98184.28;;;17.73;66.73
20115;BME280;10218;42.874;25.320;2022-10-16T08:21:14;98185.94;;;19.00;58.26
20115;BME280;10218;42.874;25.320;2022-10-16T08:23:43;98180.06;;;20.11;53.05
20115;BME280;10218;42.874;25.320;2022-10-16T08:26:12;98189.72;;;17.94;56.98
20115;BME280;10218;42.874;25.320;2022-10-16T08:28:40;98192.22;;;19.07;54.41
20115;BME280;10218;42.874;25.320;2022-10-16T08:31:17;98188.75;;;19.74;52.34
20115;BME280;10218;42.874;25.320;2022-10-16T08:33:44;98181.81;;;18.42;55.07
20115;BME280;10218;42.874;25.320;2022-10-16T08:36:14;98189.47;;;17.53;58.08
20115;BME280;10218;42.874;25.320;2022-10-16T08:38:42;98189.28;;;17.19;61.92
20115;BME280;10218;42.874;25.320;2022-10-16T08:49:21;98183.34;;;16.79;61.31
20115;BME280;10218;42.874;25.320;2022-10-16T08:51:51;98187.50;;;16.52;59.33
20115;BME280;10218;42.874;25.320;2022-10-16T08:56:57;98197.44;;;18.46;58.04
20115;BME280;10218;42.874;25.320;2022-10-16T08:59:27;98185.81;;;19.62;49.61
20115;BME280;10218;42.874;25.320;2022-10-16T09:01:56;98196.44;;;19.16;50.42
20115;BME280;10218;42.874;25.320;2022-10-16T09:05:08;98202.41;;;18.98;50.45
20115;BME280;10218;42.874;25.320;2022-10-16T09:07:54;98195.06;;;21.50;44.25
20115;BME280;10218;42.874;25.320;2022-10-16T09:20:42;98193.13;;;21.06;45.08
20115;BME280;10218;42.874;25.320;2022-10-16T09:23:29;98203.03;;;20.55;45.91
20115;BME280;10218;42.874;25.320;2022-10-16T09:25:58;98205.13;;;19.46;47.41
20115;BME280;10218;42.874;25.320;2022-10-16T09:28:26;98199.94;;;19.03;48.30
20115;BME280;10218;42.874;25.320;2022-10-16T09:30:53;98194.44;;;20.18;44.76
20115;BME280;10218;42.874;25.320;2022-10-16T09:33:24;98184.38;;;21.55;43.58
20115;BME280;10218;42.874;25.320;2022-10-16T09:35:54;98194.31;;;22.87;40.30
20115;BME280;10218;42.874;25.320;2022-10-16T09:40:52;98192.81;;;23.64;38.57
20115;BME280;10218;42.874;25.320;2022-10-16T09:43:31;98195.13;;;22.44;40.49
20115;BME280;10218;42.874;25.320;2022-10-16T09:46:05;98196.38;;;23.28;38.28
20115;BME280;10218;42.874;25.320;2022-10-16T09:48:43;98189.69;;;22.44;39.82
20115;BME280;10218;42.874;25.320;2022-10-16T09:51:23;98192.50;;;23.72;37.58
20115;BME280;10218;42.874;25.320;2022-10-16T09:56:31;98191.91;;;24.41;36.76
20115;BME280;10218;42.874;25.320;2022-10-16T09:59:02;98193.66;;;23.64;39.45
20115;BME280;10218;42.874;25.320;2022-10-16T10:01:41;98185.69;;;23.08;37.89
20115;BME280;10218;42.874;25.320;2022-10-16T10:04:10;98181.59;;;22.81;39.55
20115;BME280;10218;42.874;25.320;2022-10-16T10:09:37;98183.47;;;24.01;36.83
20115;BME280;10218;42.874;25.320;2022-10-16T10:12:06;98175.91;;;24.15;36.55
20115;BME280;10218;42.874;25.320;2022-10-16T10:14:48;98177.63;;;24.39;35.11
20115;BME280;10218;42.874;25.320;2022-10-16T10:17:21;98183.94;;;25.09;34.25
20115;BME280;10218;42.874;25.320;2022-10-16T10:30:49;98160.66;;;25.07;34.14
20115;BME280;10218;42.874;25.320;2022-10-16T10:45:01;98148.72;;;23.67;35.05
20115;BME280;10218;42.874;25.320;2022-10-16T10:58:21;98141.66;;;22.68;37.26
20115;BME280;10218;42.874;25.320;2022-10-16T11:03:50;98139.59;;;25.19;33.17
20115;BME280;10218;42.874;25.320;2022-10-16T11:07:04;98135.03;;;24.08;35.37
20115;BME280;10218;42.874;25.320;2022-10-16T11:09:36;98142.69;;;25.11;32.72
20115;BME280;10218;42.874;25.320;2022-10-16T11:12:06;98135.28;;;25.75;32.94
20115;BME280;10218;42.874;25.320;2022-10-16T11:14:41;98143.56;;;24.65;34.29
20115;BME280;10218;42.874;25.320;2022-10-16T11:17:19;98135.41;;;25.28;33.59
20115;BME280;10218;42.874;25.320;2022-10-16T11:19:57;98134.84;;;25.14;32.61
20115;BME280;10218;42.874;25.320;2022-10-16T11:22:36;98120.34;;;25.54;33.42
20115;BME280;10218;42.874;25.320;2022-10-16T11:25:20;98136.56;;;26.01;33.56
20115;BME280;10218;42.874;25.320;2022-10-16T11:30:27;98138.63;;;26.94;30.97
20115;BME280;10218;42.874;25.320;2022-10-16T11:38:09;98128.00;;;24.65;33.90
20115;BME280;10218;42.874;25.320;2022-10-16T11:40:41;98121.59;;;25.75;33.84
20115;BME280;10218;42.874;25.320;2022-10-16T11:43:15;98125.78;;;25.26;33.35
20115;BME280;10218;42.874;25.320;2022-10-16T11:45:53;98129.38;;;25.83;32.14
20115;BME280;10218;42.874;25.320;2022-10-16T11:48:43;98118.28;;;23.93;34.78
20115;BME280;10218;42.874;25.320;2022-10-16T11:51:28;98121.06;;;26.56;33.17
20115;BME280;10218;42.874;25.320;2022-10-16T11:56:43;98117.09;;;25.69;33.03
20115;BME280;10218;42.874;25.320;2022-10-16T12:05:02;98126.28;;;25.23;32.32
20115;BME280;10218;42.874;25.320;2022-10-16T12:07:36;98115.94;;;25.81;30.78
20115;BME280;10218;42.874;25.320;2022-10-16T12:10:26;98137.88;;;26.81;31.52
20115;BME280;10218;42.874;25.320;2022-10-16T12:12:53;98131.31;;;25.99;31.78
20115;BME280;10218;42.874;25.320;2022-10-16T12:15:29;98132.63;;;25.40;32.80
20115;BME280;10218;42.874;25.320;2022-10-16T12:18:24;98133.63;;;26.35;31.15
20115;BME280;10218;42.874;25.320;2022-10-16T12:20:59;98130.88;;;25.34;32.41
20115;BME280;10218;42.874;25.320;2022-10-16T12:23:53;98141.31;;;26.22;30.12
20115;BME280;10218;42.874;25.320;2022-10-16T12:26:36;98131.72;;;26.08;30.02
20115;BME280;10218;42.874;25.320;2022-10-16T12:32:19;98133.94;;;27.11;30.10
20115;BME280;10218;42.874;25.320;2022-10-16T12:35:25;98128.50;;;27.59;29.37
20115;BME280;10218;42.874;25.320;2022-10-16T12:37:54;98131.09;;;26.01;30.52
20115;BME280;10218;42.874;25.320;2022-10-16T12:40:33;98124.84;;;26.05;31.37
20115;BME280;10218;42.874;25.320;2022-10-16T12:43:26;98129.00;;;25.23;32.73
20115;BME280;10218;42.874;25.320;2022-10-16T12:46:02;98131.00;;;25.67;31.96
20115;BME280;10218;42.874;25.320;2022-10-16T12:48:30;98131.56;;;25.41;31.57
20115;BME280;10218;42.874;25.320;2022-10-16T12:51:54;98136.56;;;24.92;33.53
20115;BME280;10218;42.874;25.320;2022-10-16T12:59:53;98133.50;;;27.62;29.94
20115;BME280;10218;42.874;25.320;2022-10-16T13:08:17;98142.03;;;26.01;30.62
20115;BME280;10218;42.874;25.320;2022-10-16T13:25:19;98141.63;;;27.14;29.32
20115;BME280;10218;42.874;25.320;2022-10-16T13:27:59;98146.78;;;25.37;31.40
20115;BME280;10218;42.874;25.320;2022-10-16T13:30:37;98145.56;;;25.56;31.09
20115;BME280;10218;42.874;25.320;2022-10-16T13:33:20;98150.00;;;26.19;29.88
20115;BME280;10218;42.874;25.320;2022-10-16T13:35:53;98155.34;;;26.59;29.88
20115;BME280;10218;42.874;25.320;2022-10-16T13:38:26;98153.81;;;26.18;30.45
20115;BME280;10218;42.874;25.320;2022-10-16T13:40:59;98155.50;;;26.52;29.65
20115;BME280;10218;42.874;25.320;2022-10-16T13:43:39;98154.34;;;25.86;29.89
20115;BME280;10218;42.874;25.320;2022-10-16T13:46:13;98159.81;;;25.86;30.04
20115;BME280;10218;42.874;25.320;2022-10-16T13:48:41;98156.81;;;25.20;30.29
20115;BME280;10218;42.874;25.320;2022-10-16T13:51:16;98154.16;;;26.05;30.33
20115;BME280;10218;42.874;25.320;2022-10-16T13:53:45;98168.91;;;27.42;28.75
20115;BME280;10218;42.874;25.320;2022-10-16T13:56:18;98152.81;;;25.62;30.55
20115;BME280;10218;42.874;25.320;2022-10-16T13:58:57;98165.41;;;25.91;30.48
20115;BME280;10218;42.874;25.320;2022-10-16T14:01:50;98167.84;;;25.36;31.24
20115;BME280;10218;42.874;25.320;2022-10-16T14:04:14;98160.69;;;24.84;31.44
20115;BME280;10218;42.874;25.320;2022-10-16T14:06:45;98165.94;;;26.05;31.11
20115;BME280;10218;42.874;25.320;2022-10-16T14:09:25;98166.88;;;24.91;32.66
20115;BME280;10218;42.874;25.320;2022-10-16T14:12:12;98163.63;;;25.85;30.60
20115;BME280;10218;42.874;25.320;2022-10-16T14:14:44;98164.47;;;24.83;32.10
20115;BME280;10218;42.874;25.320;2022-10-16T14:17:19;98153.72;;;25.28;31.71
20115;BME280;10218;42.874;25.320;2022-10-16T14:19:47;98164.00;;;24.97;32.08
20115;BME280;10218;42.874;25.320;2022-10-16T14:24:53;98170.50;;;24.85;31.58
20115;BME280;10218;42.874;25.320;2022-10-16T14:27:31;98175.88;;;24.56;31.95
20115;BME280;10218;42.874;25.320;2022-10-16T14:32:34;98181.53;;;25.25;31.54
20115;BME280;10218;42.874;25.320;2022-10-16T14:35:01;98180.63;;;25.19;31.55
20115;BME280;10218;42.874;25.320;2022-10-16T14:37:30;98183.94;;;24.40;32.86
20115;BME280;10218;42.874;25.320;2022-10-16T14:39:57;98186.34;;;23.76;33.57
20115;BME280;10218;42.874;25.320;2022-10-16T14:42:25;98180.69;;;24.19;33.14
20115;BME280;10218;42.874;25.320;2022-10-16T14:44:53;98187.47;;;24.28;32.84
20115;BME280;10218;42.874;25.320;2022-10-16T14:47:23;98191.12;;;22.72;34.60
20115;BME280;10218;42.874;25.320;2022-10-16T14:49:54;98187.37;;;23.09;34.05
20115;BME280;10218;42.874;25.320;2022-10-16T14:52:23;98185.56;;;22.85;34.34
20115;BME280;10218;42.874;25.320;2022-10-16T14:54:50;98176.25;;;21.87;35.91
20115;BME280;10218;42.874;25.320;2022-10-16T14:57:24;98183.88;;;21.71;36.96
20115;BME280;10218;42.874;25.320;2022-10-16T14:59:54;98185.16;;;21.11;37.50
20115;BME280;10218;42.874;25.320;2022-10-16T15:04:49;98196.47;;;19.22;40.08
20115;BME280;10218;42.874;25.320;2022-10-16T15:07:16;98195.59;;;17.76;43.26
20115;BME280;10218;42.874;25.320;2022-10-16T15:09:43;98186.87;;;18.02;43.74
20115;BME280;10218;42.874;25.320;2022-10-16T15:12:10;98189.38;;;17.10;45.37
20115;BME280;10218;42.874;25.320;2022-10-16T15:14:38;98193.81;;;17.18;46.11
20115;BME280;10218;42.874;25.320;2022-10-16T15:17:05;98197.88;;;16.78;47.55
20115;BME280;10218;42.874;25.320;2022-10-16T15:19:32;98191.81;;;17.05;46.92
20115;BME280;10218;42.874;25.320;2022-10-16T15:22:01;98199.53;;;16.64;48.49
20115;BME280;10218;42.874;25.320;2022-10-16T15:24:28;98206.78;;;16.64;49.67
20115;BME280;10218;42.874;25.320;2022-10-16T15:26:55;98201.84;;;16.67;49.64
20115;BME280;10218;42.874;25.320;2022-10-16T15:29:22;98202.66;;;16.16;51.82
20115;BME280;10218;42.874;25.320;2022-10-16T15:31:49;98210.34;;;16.42;50.87